Hauptseite
Satellitenwetter 15-Tage PrognosenKlimaSeewetter Wirbelstürme Blitz FlughäfenFAQ Newsletter Über uns
Wetter : Europa Afrika Nordamerika Südamerika Asien Australien-Ozeanien Andere
Sprachen Kontakt

Newquay Cornwall, England

Breite: 50-26N, Länge: 005-00W, Höhe: 119 m


METAR: EGHQ 221550Z 24022KT 9999 FEW037 10/08 Q1022
TAF: EGHQ 221359Z 2215/2222 23018KT 9999 SCT012 TEMPO 2215/2222 24020G30KT

Zeit: 16:14 (16:14 UTC)

Beobachtung

Neuester Wetterbericht von vor 24 Minuten, um 15:50 UTC
Wind 22 kt aus West/Südwest
Temperatur 10°C
Luftfeuchtigkeit 87%
Luftdruck 1022 hPa
Sichtweite 10 km oder mehr
Leicht bewölkt in der Höhe von 3700 ft

Maßeinheiten ändern

Prognose

Neuester Wetterbericht von vor 2 Stunden und 15 Minuten, um 13:59 UTC
Gültige Prognose vom 22 um 15 UTC bis 22 um 22 UTC
Wind 18 kt aus Südwest
Sichtweite 10 km oder mehr
Aufgelockert bewölkt in der Höhe von 1200 ft
Zeitweise
vom 22 um 15 UTC bis 22 um 22 UTC
Wind 20 kt aus West/Südwest, Böen bis zu 30 kt
Die Angaben auf diesen Webseiten unterliegen einer Erklärung über den Haftungsausschluss
Wetter : Europa Afrika Nordamerika Südamerika Asien Australien-Ozeanien Andere
Satellitenwetter 15-Tage PrognosenKlimaSeewetter Wirbelstürme Blitz FlughäfenFAQ Sprachen Kontakt Newsletter Über uns